Time;durP1;ratioP1;P1;durP2;ratioP2;P2;SDS_P1;SDS_P2;PMS_P1;PMS_P2;Temp;Humidity;BMP_temperature;BMP_pressure;BME280_temperature;BME280_humidity;BME280_pressure;Samples;Min_cycle;Max_cycle;Signal;HPM_P1;HPM_P2
2020/12/11 00:00:37;;;;;;;11.40;5.35;;;23.80;45.80;;;;;;5108572;28;20024;-57
2020/12/11 00:03:05;;;;;;;29.35;15.35;;;23.50;47.40;;;;;;5112569;28;20031;-55
2020/12/11 00:05:32;;;;;;;14.85;6.55;;;23.50;47.90;;;;;;5112064;28;20015;-55
2020/12/11 00:08:00;;;;;;;13.77;4.40;;;23.50;48.70;;;;;;5111839;28;20027;-55
2020/12/11 00:10:28;;;;;;;16.17;5.97;;;23.40;48.80;;;;;;5111513;28;20372;-56
2020/12/11 00:12:56;;;;;;;19.80;8.15;;;23.40;48.60;;;;;;5112259;28;20032;-51
2020/12/11 00:15:23;;;;;;;17.20;8.38;;;23.30;48.10;;;;;;5111544;28;20047;-59
2020/12/11 00:17:50;;;;;;;14.50;8.43;;;23.40;48.80;;;;;;5111687;28;20123;-54
2020/12/11 00:20:18;;;;;;;17.42;7.22;;;23.40;48.60;;;;;;5112149;28;20079;-56
2020/12/11 00:22:45;;;;;;;13.60;4.60;;;23.30;47.70;;;;;;5111800;28;20035;-58
2020/12/11 00:25:12;;;;;;;8.82;2.90;;;23.30;48.60;;;;;;5112443;28;20028;-56
2020/12/11 00:27:40;;;;;;;14.65;7.20;;;23.20;47.50;;;;;;5111870;28;20047;-59
2020/12/11 00:30:08;;;;;;;18.08;9.60;;;23.30;49.40;;;;;;5111933;28;20070;-56
2020/12/11 00:32:38;;;;;;;25.02;12.73;;;23.30;49.40;;;;;;5112331;28;20023;-56
2020/12/11 00:35:08;;;;;;;10.38;5.78;;;23.30;49.60;;;;;;5111860;28;20020;-59
2020/12/11 00:37:36;;;;;;;14.18;8.63;;;23.40;49.30;;;;;;5111811;28;20035;-56
2020/12/11 00:40:04;;;;;;;11.43;7.55;;;23.40;48.60;;;;;;5111738;28;20101;-56
2020/12/11 00:42:32;;;;;;;14.02;6.55;;;23.50;49.50;;;;;;5111621;28;20453;-54
2020/12/11 00:44:59;;;;;;;12.52;6.18;;;23.10;50.80;;;;;;5111013;28;20106;-57
2020/12/11 00:47:26;;;;;;;14.07;5.60;;;23.20;51.40;;;;;;5111511;28;20434;-60
2020/12/11 00:49:54;;;;;;;8.68;3.35;;;23.00;51.50;;;;;;5093323;28;20035;-54
2020/12/11 00:52:21;;;;;;;10.55;4.13;;;23.00;52.00;;;;;;5112225;28;20062;-56
2020/12/11 00:54:48;;;;;;;12.98;4.80;;;23.10;51.90;;;;;;5111884;28;20465;-59
2020/12/11 00:57:15;;;;;;;12.80;5.13;;;23.20;50.20;;;;;;5111853;28;20541;-55
2020/12/11 00:59:43;;;;;;;13.82;3.83;;;23.20;50.90;;;;;;5110955;28;20024;-60
2020/12/11 01:02:10;;;;;;;8.52;3.28;;;23.20;50.90;;;;;;5111717;28;20019;-51
2020/12/11 01:04:37;;;;;;;11.70;4.40;;;23.30;51.20;;;;;;5110973;28;20050;-55
2020/12/11 01:07:05;;;;;;;7.68;3.05;;;23.40;50.70;;;;;;5110845;28;20035;-54
2020/12/11 01:09:32;;;;;;;8.82;3.30;;;23.50;50.20;;;;;;5111512;28;20489;-55
2020/12/11 01:11:59;;;;;;;12.90;3.50;;;23.60;50.30;;;;;;5112123;28;20039;-56
2020/12/11 01:14:27;;;;;;;8.10;2.70;;;23.60;50.30;;;;;;5111931;28;20047;-53
2020/12/11 01:16:54;;;;;;;9.48;3.10;;;23.80;50.30;;;;;;5111561;28;20032;-54
2020/12/11 01:19:21;;;;;;;13.85;4.25;;;23.70;49.60;;;;;;5110760;28;20024;-54
2020/12/11 01:21:49;;;;;;;13.60;3.15;;;23.80;50.50;;;;;;5111225;28;20126;-53
2020/12/11 01:24:16;;;;;;;6.38;2.40;;;23.80;49.90;;;;;;5111307;28;20050;-51
2020/12/11 01:26:47;;;;;;;13.75;3.20;;;23.80;50.90;;;;;;5111574;28;20028;-50
2020/12/11 01:29:14;;;;;;;9.80;2.80;;;23.90;50.40;;;;;;5112318;28;20164;-52
2020/12/11 01:31:42;;;;;;;9.57;2.90;;;23.90;50.10;;;;;;5111496;28;20145;-53
2020/12/11 01:34:09;;;;;;;13.07;2.95;;;23.90;51.00;;;;;;5111545;28;20101;-55
2020/12/11 01:36:36;;;;;;;8.32;3.17;;;24.00;51.00;;;;;;5111634;28;20092;-56
2020/12/11 01:39:04;;;;;;;5.65;2.30;;;24.00;50.90;;;;;;5111901;28;20051;-52
2020/12/11 01:41:33;;;;;;;9.25;2.20;;;24.00;50.20;;;;;;5111585;28;20389;-54
2020/12/11 01:44:12;;;;;;;9.20;2.30;;;24.00;50.40;;;;;;5110835;28;20038;-57
2020/12/11 01:46:42;;;;;;;8.25;2.50;;;23.90;50.20;;;;;;5111206;28;20027;-59
2020/12/11 01:49:12;;;;;;;8.55;2.25;;;23.90;50.30;;;;;;5111150;28;20019;-54
2020/12/11 01:51:40;;;;;;;8.30;2.22;;;24.00;50.90;;;;;;5115003;28;20028;-56
2020/12/11 01:54:07;;;;;;;6.88;2.15;;;24.10;50.70;;;;;;5096841;28;20024;-53
2020/12/11 01:57:08;;;;;;;6.60;2.40;;;24.00;50.30;;;;;;5115516;28;20420;-55
2020/12/11 01:59:43;;;;;;;12.52;2.92;;;24.00;51.10;;;;;;5112171;28;20032;-56
2020/12/11 02:02:12;;;;;;;15.32;2.80;;;23.90;50.90;;;;;;5097027;28;20071;-58
2020/12/11 02:04:41;;;;;;;15.82;2.80;;;23.70;51.60;;;;;;5115520;28;20020;-64
2020/12/11 02:07:08;;;;;;;11.05;2.85;;;23.70;51.40;;;;;;5114777;28;20059;-57
2020/12/11 02:09:38;;;;;;;7.88;2.45;;;23.70;51.40;;;;;;5114848;28;20077;-57
2020/12/11 02:12:06;;;;;;;6.82;2.60;;;23.80;51.30;;;;;;5097455;28;20027;-59
2020/12/11 02:14:34;;;;;;;6.57;2.15;;;23.70;51.30;;;;;;5115297;28;20057;-62
2020/12/11 02:17:06;;;;;;;6.38;2.30;;;23.80;51.40;;;;;;5114564;28;20470;-61
2020/12/11 02:19:34;;;;;;;7.93;2.72;;;23.80;51.30;;;;;;5115201;28;20492;-59
2020/12/11 02:22:05;;;;;;;6.85;2.47;;;23.70;51.30;;;;;;5115028;28;20386;-54
2020/12/11 02:24:33;;;;;;;7.10;1.90;;;23.70;51.40;;;;;;5114374;28;20101;-55
2020/12/11 02:27:03;;;;;;;7.25;2.00;;;23.70;51.30;;;;;;5114720;28;20031;-53
2020/12/11 02:29:30;;;;;;;6.63;1.92;;;23.70;51.30;;;;;;5115354;28;20034;-54
2020/12/11 02:31:58;;;;;;;4.35;2.00;;;23.70;51.40;;;;;;5114762;28;20507;-54
2020/12/11 02:34:25;;;;;;;10.77;2.28;;;23.70;51.50;;;;;;5114831;28;20389;-58
2020/12/11 02:36:52;;;;;;;8.80;2.72;;;23.70;51.70;;;;;;5114882;28;20019;-55
2020/12/11 02:39:20;;;;;;;8.85;1.98;;;23.70;51.90;;;;;;5114207;28;20085;-60
2020/12/11 02:41:50;;;;;;;9.40;2.10;;;23.70;51.80;;;;;;5114373;28;20020;-55
2020/12/11 02:44:17;;;;;;;8.60;2.08;;;23.70;52.00;;;;;;5114656;28;20114;-59
2020/12/11 02:46:46;;;;;;;5.43;1.90;;;23.70;52.00;;;;;;5114822;28;20035;-57
2020/12/11 02:49:14;;;;;;;8.63;2.22;;;23.70;52.20;;;;;;5114677;28;20028;-55
2020/12/11 02:51:41;;;;;;;4.03;1.67;;;23.70;52.30;;;;;;5111104;28;20054;-60
2020/12/11 02:54:08;;;;;;;7.30;2.05;;;23.70;52.40;;;;;;5112543;28;20535;-54
2020/12/11 02:56:36;;;;;;;7.05;1.95;;;23.70;52.50;;;;;;5111999;28;20031;-59
2020/12/11 02:59:03;;;;;;;6.53;2.22;;;23.60;52.50;;;;;;5113740;28;20031;-60
2020/12/11 03:01:30;;;;;;;6.45;2.20;;;23.60;52.50;;;;;;5114175;28;20055;-60
2020/12/11 03:03:58;;;;;;;13.52;3.05;;;23.60;52.60;;;;;;5113658;28;20377;-58
2020/12/11 03:06:32;;;;;;;7.95;2.00;;;23.60;52.60;;;;;;5113620;28;20051;-63
2020/12/11 03:09:03;;;;;;;8.27;1.95;;;23.70;52.80;;;;;;5114080;28;20038;-60
2020/12/11 03:11:30;;;;;;;4.22;2.15;;;23.60;52.60;;;;;;5079170;28;20023;-59
2020/12/11 03:13:58;;;;;;;5.53;2.00;;;23.60;52.70;;;;;;5113902;28;20035;-58
2020/12/11 03:16:25;;;;;;;6.65;2.10;;;23.60;52.80;;;;;;5113243;28;20023;-63
2020/12/11 03:18:52;;;;;;;7.35;2.17;;;23.60;52.80;;;;;;5112723;28;20079;-62
2020/12/11 03:21:20;;;;;;;7.40;1.95;;;23.60;52.70;;;;;;5113078;28;20023;-59
2020/12/11 03:23:47;;;;;;;8.00;1.98;;;23.70;52.80;;;;;;5112735;28;20020;-58
2020/12/11 03:26:16;;;;;;;6.13;1.98;;;23.70;52.90;;;;;;5094061;28;20027;-59
2020/12/11 03:28:43;;;;;;;5.47;1.98;;;23.70;53.00;;;;;;5094547;28;20031;-58
2020/12/11 03:31:10;;;;;;;9.30;1.92;;;23.70;53.00;;;;;;5112738;28;20066;-58
2020/12/11 03:33:38;;;;;;;8.43;2.58;;;23.70;53.00;;;;;;5112976;28;20034;-62
2020/12/11 03:36:05;;;;;;;11.55;2.38;;;23.70;52.80;;;;;;5094515;28;20024;-56
2020/12/11 03:38:32;;;;;;;5.47;1.77;;;23.70;53.00;;;;;;5112748;28;20024;-58
2020/12/11 03:41:00;;;;;;;6.40;1.58;;;23.70;52.90;;;;;;5112553;28;20138;-60
2020/12/11 03:43:27;;;;;;;6.03;1.80;;;23.70;52.80;;;;;;5112869;28;20023;-55
2020/12/11 03:45:54;;;;;;;4.88;1.58;;;23.70;52.90;;;;;;5077602;28;20027;-58
2020/12/11 03:48:22;;;;;;;7.35;2.33;;;23.70;53.00;;;;;;5112929;28;20043;-62
2020/12/11 03:50:49;;;;;;;4.78;1.60;;;23.70;52.90;;;;;;5113075;28;20051;-63
2020/12/11 03:53:17;;;;;;;4.38;1.70;;;23.70;53.10;;;;;;5112486;28;20043;-62
2020/12/11 03:55:44;;;;;;;7.38;2.08;;;23.70;52.90;;;;;;5113153;28;20041;-62
2020/12/11 03:58:11;;;;;;;5.68;1.98;;;23.70;52.40;;;;;;5112929;28;20024;-63
2020/12/11 04:00:39;;;;;;;6.03;2.00;;;23.80;52.80;;;;;;5113002;28;20030;-57
2020/12/11 04:03:06;;;;;;;5.18;1.38;;;23.80;52.90;;;;;;5113106;28;20351;-58
2020/12/11 04:05:33;;;;;;;4.85;1.63;;;23.80;52.20;;;;;;5112971;28;20023;-57
2020/12/11 04:08:01;;;;;;;8.00;2.08;;;23.80;53.00;;;;;;5112505;28;20034;-62
2020/12/11 04:10:28;;;;;;;5.38;1.55;;;23.80;52.70;;;;;;5112465;28;20032;-62
2020/12/11 04:12:56;;;;;;;7.03;2.47;;;23.90;53.00;;;;;;5112427;28;20027;-59
2020/12/11 04:15:24;;;;;;;5.57;1.88;;;23.90;53.00;;;;;;5113033;28;20031;-62
2020/12/11 04:17:51;;;;;;;5.78;1.90;;;23.90;52.40;;;;;;5112716;28;20058;-57
2020/12/11 04:20:18;;;;;;;3.03;1.52;;;23.90;52.70;;;;;;5113073;28;20028;-63
2020/12/11 04:22:46;;;;;;;5.60;1.73;;;23.90;52.80;;;;;;5112277;28;20030;-58
2020/12/11 04:25:13;;;;;;;4.20;1.38;;;23.90;52.70;;;;;;5112406;28;20019;-62
2020/12/11 04:27:40;;;;;;;3.67;1.73;;;23.90;52.10;;;;;;5112293;28;20031;-60
2020/12/11 04:30:08;;;;;;;3.05;1.40;;;23.90;52.60;;;;;;5112490;28;20028;-60
2020/12/11 04:32:35;;;;;;;3.75;1.25;;;23.90;52.70;;;;;;5112363;28;20428;-58
2020/12/11 04:35:02;;;;;;;5.00;1.90;;;23.90;52.70;;;;;;5093605;28;20554;-64
2020/12/11 04:37:30;;;;;;;2.50;1.25;;;23.90;52.70;;;;;;5112243;28;20051;-61
2020/12/11 04:39:57;;;;;;;4.53;1.63;;;23.90;52.80;;;;;;5112052;28;20073;-60
2020/12/11 04:42:27;;;;;;;4.18;1.40;;;23.90;52.90;;;;;;5112222;28;20019;-64
2020/12/11 04:44:54;;;;;;;5.65;1.63;;;23.90;52.80;;;;;;5112207;28;20034;-63
2020/12/11 04:47:22;;;;;;;4.80;1.48;;;23.90;53.00;;;;;;5111374;28;20031;-60
2020/12/11 04:49:49;;;;;;;3.80;1.60;;;23.80;52.80;;;;;;5111669;28;20028;-62
2020/12/11 04:52:22;;;;;;;2.92;1.23;;;23.80;53.00;;;;;;5112209;28;20043;-60
2020/12/11 04:54:50;;;;;;;4.95;1.42;;;23.80;52.90;;;;;;5112213;28;20019;-61
2020/12/11 04:57:25;;;;;;;2.92;0.98;;;23.80;52.80;;;;;;5112296;28;20326;-60
2020/12/11 04:59:52;;;;;;;2.75;1.20;;;23.80;52.90;;;;;;5112186;28;20023;-61
2020/12/11 05:02:20;;;;;;;4.13;1.58;;;23.80;53.00;;;;;;5112038;28;20073;-57
2020/12/11 05:04:55;;;;;;;3.42;1.33;;;23.80;52.90;;;;;;5111917;28;20047;-61
2020/12/11 05:07:22;;;;;;;5.22;2.08;;;23.80;52.80;;;;;;5111390;28;20103;-60
2020/12/11 05:09:56;;;;;;;4.20;1.60;;;23.80;52.80;;;;;;5111596;28;20080;-61
2020/12/11 05:12:24;;;;;;;4.05;1.20;;;23.70;53.00;;;;;;5111693;28;20028;-61
2020/12/11 05:14:59;;;;;;;4.50;1.55;;;23.70;52.60;;;;;;5112046;28;20024;-61
2020/12/11 05:17:33;;;;;;;2.65;1.40;;;23.70;52.90;;;;;;5111699;28;20047;-63
2020/12/11 05:20:01;;;;;;;5.57;1.75;;;23.80;53.20;;;;;;5093884;28;20028;-62
2020/12/11 05:22:36;;;;;;;4.60;1.90;;;23.70;53.10;;;;;;5111720;28;20020;-60
2020/12/11 05:25:07;;;;;;;5.32;1.80;;;23.70;53.00;;;;;;5114504;28;20049;-62
2020/12/11 05:27:40;;;;;;;4.53;1.70;;;23.70;53.00;;;;;;5116213;28;20039;-63
2020/12/11 05:30:14;;;;;;;4.32;1.67;;;23.70;53.20;;;;;;5115886;28;20407;-62
2020/12/11 05:32:42;;;;;;;3.30;1.00;;;23.70;53.90;;;;;;5115927;28;20051;-58
2020/12/11 05:35:30;;;;;;;3.83;1.48;;;23.70;53.10;;;;;;5115939;28;20393;-61
2020/12/11 05:38:10;;;;;;;5.53;1.67;;;23.70;53.10;;;;;;5115673;28;20097;-62
2020/12/11 05:40:39;;;;;;;3.35;1.27;;;23.60;53.30;;;;;;5115579;28;20045;-61
2020/12/11 05:43:15;;;;;;;5.10;1.50;;;23.60;53.30;;;;;;5116310;28;20055;-62
2020/12/11 05:45:51;;;;;;;4.15;1.38;;;23.60;53.30;;;;;;5115593;28;20030;-60
2020/12/11 05:48:25;;;;;;;4.50;1.55;;;23.60;53.20;;;;;;5115682;28;20039;-62
2020/12/11 05:50:53;;;;;;;2.83;1.20;;;23.60;53.20;;;;;;5097492;28;20458;-60
2020/12/11 05:53:21;;;;;;;2.00;1.10;;;23.60;53.10;;;;;;5097088;28;20024;-62
2020/12/11 05:55:48;;;;;;;3.53;1.23;;;23.60;53.30;;;;;;5093180;28;20024;-63
2020/12/11 05:58:17;;;;;;;3.67;1.42;;;23.60;53.10;;;;;;5093420;28;20016;-60
2020/12/11 06:00:46;;;;;;;4.00;1.35;;;23.50;53.10;;;;;;5094508;28;20058;-59
2020/12/11 06:03:14;;;;;;;4.97;1.25;;;23.50;53.70;;;;;;5094151;28;20021;-58
2020/12/11 06:05:41;;;;;;;5.85;1.55;;;23.50;53.50;;;;;;5094178;28;20028;-62
2020/12/11 06:08:11;;;;;;;4.63;1.60;;;23.50;53.30;;;;;;5094775;28;20040;-55
2020/12/11 06:10:42;;;;;;;2.80;1.40;;;23.50;53.70;;;;;;5094778;28;20370;-65
2020/12/11 06:13:09;;;;;;;2.80;1.27;;;23.50;53.50;;;;;;5094292;28;20035;-61
2020/12/11 06:15:48;;;;;;;4.53;1.75;;;23.50;53.60;;;;;;5094018;28;20103;-60
2020/12/11 06:18:22;;;;;;;4.40;1.80;;;23.50;53.80;;;;;;5075570;28;20052;-57
2020/12/11 06:20:54;;;;;;;5.32;1.80;;;23.40;53.70;;;;;;5093009;28;20481;-61
2020/12/11 06:23:20;;;;;;;;;;;23.40;53.70;;;;;;5093701;28;20044;-57
2020/12/11 06:25:55;;;;;;;2.30;1.27;;;23.40;53.90;;;;;;5093231;28;19904;-60
2020/12/11 06:28:44;;;;;;;3.58;1.20;;;23.40;53.70;;;;;;5074718;28;20032;-64
2020/12/11 06:31:20;;;;;;;3.10;1.50;;;23.40;53.90;;;;;;5093123;28;20056;-59
2020/12/11 06:33:56;;;;;;;5.82;1.75;;;23.40;53.90;;;;;;5074337;28;20586;-64
2020/12/11 06:36:24;;;;;;;5.20;1.58;;;23.40;53.90;;;;;;5091565;28;20024;-62
2020/12/11 06:38:52;;;;;;;4.38;1.30;;;23.40;53.80;;;;;;5093005;28;20031;-59
2020/12/11 06:41:28;;;;;;;2.97;1.17;;;23.40;54.10;;;;;;5092835;28;20057;-61
2020/12/11 06:44:16;;;;;;;5.03;1.58;;;23.40;53.90;;;;;;5092862;28;20482;-62
2020/12/11 06:46:44;;;;;;;2.60;1.02;;;23.40;53.90;;;;;;5092689;28;20024;-62
2020/12/11 06:49:12;;;;;;;4.30;1.27;;;23.40;53.90;;;;;;5092593;28;20481;-63
2020/12/11 06:51:48;;;;;;;3.45;1.33;;;23.40;53.80;;;;;;5092675;28;20110;-63
2020/12/11 06:54:22;;;;;;;6.30;1.55;;;23.40;54.00;;;;;;5092759;28;20027;-59
2020/12/11 06:56:52;;;;;;;3.00;1.45;;;23.40;53.90;;;;;;5092167;28;20023;-58
2020/12/11 06:59:28;;;;;;;3.85;1.42;;;23.40;53.90;;;;;;5092758;28;20026;-58
2020/12/11 07:02:07;;;;;;;3.25;1.35;;;23.40;54.00;;;;;;5092188;28;20429;-61
2020/12/11 07:04:45;;;;;;;3.30;1.30;;;23.40;54.00;;;;;;5092434;28;20050;-56
2020/12/11 07:07:13;;;;;;;5.85;1.88;;;23.40;54.00;;;;;;5092484;28;20386;-58
2020/12/11 07:09:42;;;;;;;3.53;1.58;;;23.40;54.10;;;;;;5092447;28;20020;-63
2020/12/11 07:12:09;;;;;;;2.78;2.00;;;23.30;54.10;;;;;;5092361;28;20470;-58
2020/12/11 07:14:37;;;;;;;4.70;1.70;;;23.40;54.20;;;;;;5092594;28;20210;-58
2020/12/11 07:17:04;;;;;;;4.68;1.15;;;23.40;54.00;;;;;;5007060;28;2422137;-60
2020/12/11 07:19:39;;;;;;;3.63;1.75;;;23.30;54.20;;;;;;5093804;28;20039;-59
2020/12/11 07:22:07;;;;;;;5.43;1.50;;;23.40;54.10;;;;;;5093456;28;20032;-61
2020/12/11 07:24:35;;;;;;;3.92;1.48;;;23.40;54.20;;;;;;5093763;28;20501;-49
2020/12/11 07:27:07;;;;;;;2.15;1.30;;;23.30;54.20;;;;;;5093552;28;20055;-50
2020/12/11 07:29:34;;;;;;;3.22;1.60;;;23.30;54.10;;;;;;5075618;28;20020;-52
2020/12/11 07:32:02;;;;;;;4.80;1.80;;;23.30;54.20;;;;;;5075407;28;20032;-55
2020/12/11 07:34:33;;;;;;;5.13;1.67;;;23.30;54.20;;;;;;5093351;28;20408;-56
2020/12/11 07:37:01;;;;;;;3.83;1.38;;;23.30;54.20;;;;;;5093231;28;20028;-57
2020/12/11 07:39:30;;;;;;;5.68;1.60;;;23.30;54.30;;;;;;5092810;28;20428;-55
2020/12/11 07:42:02;;;;;;;4.07;1.70;;;23.30;54.10;;;;;;5093002;28;20028;-58
2020/12/11 07:44:32;;;;;;;3.22;1.35;;;23.30;54.20;;;;;;5092613;28;20016;-56
2020/12/11 07:47:07;;;;;;;4.85;1.42;;;23.30;54.30;;;;;;5092003;28;20368;-62
2020/12/11 07:49:37;;;;;;;3.78;1.10;;;23.30;54.20;;;;;;5092867;28;20413;-55
2020/12/11 07:52:06;;;;;;;2.83;1.40;;;23.20;54.20;;;;;;5092931;28;20020;-57
2020/12/11 07:54:41;;;;;;;3.60;1.40;;;23.20;54.20;;;;;;5093600;28;20081;-56
2020/12/11 07:57:25;;;;;;;2.88;1.30;;;23.20;54.30;;;;;;5075343;28;20028;-60
2020/12/11 08:00:04;;;;;;;2.15;1.17;;;23.20;54.30;;;;;;5074746;28;20159;-62
2020/12/11 08:02:34;;;;;;;3.28;1.30;;;23.20;54.20;;;;;;5093275;28;20024;-59
2020/12/11 08:05:06;;;;;;;3.30;1.30;;;23.20;54.30;;;;;;5092877;28;20020;-61
2020/12/11 08:07:34;;;;;;;4.30;1.33;;;23.20;54.40;;;;;;5074437;28;20089;-66
2020/12/11 08:10:13;;;;;;;2.65;1.30;;;23.20;54.30;;;;;;5093018;28;20061;-64
2020/12/11 08:12:41;;;;;;;2.40;1.25;;;23.20;54.30;;;;;;5092346;28;20051;-61
2020/12/11 08:15:09;;;;;;;3.95;1.40;;;23.10;54.40;;;;;;5073837;28;20110;-62
2020/12/11 08:17:37;;;;;;;2.75;1.30;;;23.10;54.40;;;;;;5091687;28;20490;-58
2020/12/11 08:20:09;;;;;;;2.65;1.17;;;23.10;54.60;;;;;;5092454;28;20530;-61
2020/12/11 08:22:41;;;;;;;3.25;1.23;;;23.10;54.50;;;;;;5092226;28;20176;-60
2020/12/11 08:25:23;;;;;;;;;;;23.10;54.50;;;;;;5092398;28;20043;-57
2020/12/11 08:27:51;;;;;;;5.68;1.50;;;23.10;54.50;;;;;;5100213;28;19912;-62
2020/12/11 08:30:21;;;;;;;3.47;1.40;;;23.00;54.60;;;;;;5112511;28;20027;-60
2020/12/11 08:32:49;;;;;;;2.97;1.38;;;23.00;54.70;;;;;;5110467;28;20136;-59
2020/12/11 08:35:22;;;;;;;4.57;1.15;;;23.10;54.60;;;;;;5111577;28;20030;-56
2020/12/11 08:37:53;;;;;;;5.18;1.67;;;23.00;54.60;;;;;;5111517;28;20035;-56
2020/12/11 08:40:21;;;;;;;2.05;1.15;;;23.10;54.60;;;;;;5112360;28;20046;-61
2020/12/11 08:51:38;;;;;;;3.85;1.40;;;23.00;55.80;;;;;;5110758;28;20092;-57
2020/12/11 08:54:08;;;;;;;3.80;1.30;;;23.00;56.20;;;;;;5109964;28;20034;-59
2020/12/11 08:56:35;;;;;;;5.03;1.38;;;23.00;55.50;;;;;;5110942;28;20432;-57
2020/12/11 08:59:03;;;;;;;3.10;1.45;;;23.00;55.50;;;;;;5111160;28;20047;-58
2020/12/11 09:01:30;;;;;;;3.47;1.25;;;23.00;55.50;;;;;;5112064;28;20095;-65
2020/12/11 09:03:57;;;;;;;3.35;1.40;;;22.90;55.30;;;;;;5112301;28;20115;-65
2020/12/11 09:06:25;;;;;;;2.85;1.20;;;22.90;55.70;;;;;;5111279;28;20075;-61
2020/12/11 09:08:52;;;;;;;2.42;0.90;;;22.90;55.50;;;;;;5109835;28;20139;-60
2020/12/11 09:11:19;;;;;;;3.13;1.40;;;22.90;55.80;;;;;;5110264;28;20055;-59
2020/12/11 09:13:47;;;;;;;3.83;1.30;;;22.90;55.80;;;;;;5109999;28;20106;-58
2020/12/11 09:16:14;;;;;;;3.20;1.55;;;22.90;55.70;;;;;;5110087;28;20016;-63
2020/12/11 09:18:41;;;;;;;4.25;1.35;;;22.90;55.90;;;;;;5109496;28;20048;-61
2020/12/11 09:21:09;;;;;;;2.83;1.23;;;22.90;55.80;;;;;;5110617;28;20016;-57
2020/12/11 09:23:36;;;;;;;3.33;1.40;;;22.90;55.90;;;;;;5111746;28;20376;-57
2020/12/11 09:26:03;;;;;;;3.03;1.15;;;22.90;55.90;;;;;;5112150;28;20030;-59
2020/12/11 09:28:31;;;;;;;3.00;1.40;;;22.90;56.00;;;;;;5111918;28;20028;-57
2020/12/11 09:30:58;;;;;;;3.25;1.33;;;22.90;56.00;;;;;;5111916;28;20441;-57
2020/12/11 09:33:28;;;;;;;3.63;1.42;;;22.90;55.90;;;;;;5112032;28;20024;-55
2020/12/11 09:35:55;;;;;;;2.67;1.35;;;22.90;55.90;;;;;;5111781;28;20098;-59
2020/12/11 09:38:22;;;;;;;3.35;1.30;;;22.80;55.90;;;;;;5112124;28;20058;-58
2020/12/11 09:40:53;;;;;;;7.72;1.30;;;22.80;55.90;;;;;;5112188;28;20024;-58
2020/12/11 09:43:42;;;;;;;4.07;1.20;;;22.80;55.90;;;;;;5111271;28;20032;-63
2020/12/11 09:48:54;;;;;;;2.33;1.63;;;22.80;55.90;;;;;;5112382;28;20042;-61
2020/12/11 09:56:35;;;;;;;5.28;1.38;;;22.80;56.00;;;;;;5111878;28;20015;-60
2020/12/11 09:59:10;;;;;;;3.72;1.40;;;22.70;55.80;;;;;;5111753;28;20158;-60
2020/12/11 10:04:19;;;;;;;;;;;22.70;55.90;;;;;;5112612;28;20081;-58
2020/12/11 10:06:47;;;;;;;2.47;1.27;;;22.70;55.90;;;;;;5111685;28;19948;-54
2020/12/11 10:09:14;;;;;;;4.72;1.48;;;22.70;55.90;;;;;;5111758;28;20047;-63
2020/12/11 10:11:42;;;;;;;2.53;1.05;;;22.70;56.00;;;;;;5113376;28;20028;-57
2020/12/11 10:16:40;;;;;;;2.97;1.52;;;22.70;55.90;;;;;;5115896;28;20323;-51
2020/12/11 10:19:07;;;;;;;3.35;1.38;;;22.70;56.00;;;;;;5115331;28;20079;-59
2020/12/11 10:21:35;;;;;;;4.68;1.60;;;22.60;55.90;;;;;;5115191;28;20060;-57
2020/12/11 10:24:02;;;;;;;4.30;1.58;;;22.60;56.00;;;;;;5115214;28;20023;-60
2020/12/11 10:26:30;;;;;;;2.63;0.90;;;22.60;56.00;;;;;;5115296;28;20456;-53
2020/12/11 10:28:57;;;;;;;3.30;0.93;;;22.60;56.00;;;;;;5115340;28;20032;-56
2020/12/11 10:31:33;;;;;;;4.18;1.58;;;22.60;55.90;;;;;;5115280;28;20482;-56
2020/12/11 10:34:01;;;;;;;3.83;1.20;;;22.60;56.00;;;;;;5115127;28;20043;-60
2020/12/11 10:36:37;;;;;;;4.00;2.20;;;22.60;56.00;;;;;;5114856;28;20027;-56
2020/12/11 10:39:06;;;;;;;2.00;0.90;;;22.70;56.00;;;;;;5115299;28;20028;-64
2020/12/11 10:41:33;;;;;;;1.63;1.00;;;22.60;55.90;;;;;;5114922;28;20465;-63
2020/12/11 10:44:01;;;;;;;1.88;1.08;;;22.60;56.00;;;;;;5114910;28;20043;-60
2020/12/11 10:46:28;;;;;;;3.33;1.10;;;22.60;56.00;;;;;;5114744;28;20020;-55
2020/12/11 10:48:56;;;;;;;2.60;1.10;;;22.60;56.00;;;;;;5114348;28;20082;-59
2020/12/11 10:51:23;;;;;;;3.42;1.20;;;22.60;55.90;;;;;;5096427;28;20075;-54
2020/12/11 10:53:51;;;;;;;3.75;1.33;;;22.60;56.00;;;;;;5114297;28;20066;-60
2020/12/11 10:56:19;;;;;;;3.70;1.23;;;22.60;55.90;;;;;;5114395;28;20016;-60
2020/12/11 10:58:47;;;;;;;2.17;1.30;;;22.60;55.90;;;;;;5114060;28;20420;-57
2020/12/11 11:01:15;;;;;;;3.72;1.55;;;22.60;55.90;;;;;;5095905;28;20436;-60
2020/12/11 11:03:43;;;;;;;4.72;1.30;;;22.50;55.80;;;;;;5114434;28;20070;-59
2020/12/11 11:06:26;;;;;;;4.15;1.67;;;22.60;55.90;;;;;;5114610;28;20088;-56
2020/12/11 11:11:22;;;;;;;2.42;1.17;;;22.50;55.80;;;;;;5114702;28;20016;-59
2020/12/11 11:19:28;;;;;;;1.65;0.90;;;22.50;56.00;;;;;;5114083;28;20071;-57
2020/12/11 11:29:41;;;;;;;2.97;1.10;;;22.50;55.90;;;;;;5114188;28;20494;-54
2020/12/11 11:32:09;;;;;;;2.15;1.10;;;22.50;55.80;;;;;;5114119;28;20102;-61
2020/12/11 11:34:36;;;;;;;2.00;1.35;;;22.40;55.80;;;;;;5113816;28;20034;-54
2020/12/11 11:37:03;;;;;;;4.25;1.27;;;22.50;55.90;;;;;;5113502;28;20159;-61
2020/12/11 11:39:31;;;;;;;3.08;1.52;;;22.40;55.80;;;;;;5113743;28;20035;-54
2020/12/11 11:41:58;;;;;;;3.80;1.10;;;22.40;55.80;;;;;;5113625;28;20428;-57
2020/12/11 11:46:56;;;;;;;1.98;1.20;;;22.40;55.80;;;;;;5113965;28;20031;-61
2020/12/11 11:50:16;;;;;;;2.58;0.88;;;22.40;55.80;;;;;;5095266;28;20032;-59
2020/12/11 11:52:49;;;;;;;4.43;1.38;;;22.40;55.80;;;;;;5105223;27;20047;-60
2020/12/11 11:55:12;;;;;;;5.55;1.23;;;22.40;55.80;;;;;;5108197;28;20038;-56
2020/12/11 11:57:40;;;;;;;2.40;1.05;;;22.30;55.60;;;;;;5112159;28;20125;-62
2020/12/11 12:00:09;;;;;;;3.72;1.10;;;22.30;55.60;;;;;;5113774;28;20023;-61
2020/12/11 12:02:37;;;;;;;2.20;1.40;;;22.30;55.60;;;;;;5113827;28;20072;-60
2020/12/11 12:05:09;;;;;;;3.63;1.20;;;22.30;55.50;;;;;;5113636;28;20493;-61
2020/12/11 12:07:36;;;;;;;;;;;22.30;55.50;;;;;;5113434;28;20177;-58
2020/12/11 12:10:08;;;;;;;2.35;1.17;;;22.30;56.10;;;;;;5113287;28;19910;-60
2020/12/11 12:12:43;;;;;;;3.70;1.50;;;22.30;55.50;;;;;;5113007;28;20097;-61
2020/12/11 12:15:17;;;;;;;4.18;1.52;;;22.30;55.50;;;;;;5113404;28;20501;-59
2020/12/11 12:17:55;;;;;;;2.83;1.35;;;22.30;55.40;;;;;;5113010;28;20147;-58
2020/12/11 12:20:35;;;;;;;4.53;1.77;;;22.30;55.40;;;;;;5112728;28;20023;-62
2020/12/11 12:28:31;;;;;;;4.07;1.42;;;22.30;55.30;;;;;;5113294;28;20514;-51
2020/12/11 12:30:59;;;;;;;3.40;1.33;;;22.20;55.30;;;;;;5126708;27;20039;-54
2020/12/11 12:43:59;;;;;;;2.97;1.40;;;22.20;55.20;;;;;;5113289;28;20035;-52
2020/12/11 12:46:27;;;;;;;3.22;1.13;;;22.20;55.10;;;;;;5112740;28;20491;-57
2020/12/11 12:48:54;;;;;;;3.33;1.30;;;22.20;55.20;;;;;;5112715;28;20032;-61
2020/12/11 12:51:22;;;;;;;2.50;0.95;;;22.20;55.10;;;;;;5112754;28;20031;-55
2020/12/11 12:53:49;;;;;;;5.90;1.33;;;22.20;55.10;;;;;;5112347;28;20023;-61
2020/12/11 12:56:37;;;;;;;2.45;1.20;;;22.20;55.10;;;;;;5112650;28;20466;-59
2020/12/11 12:59:14;;;;;;;3.88;1.30;;;22.20;55.10;;;;;;5112917;28;20040;-61
2020/12/11 13:04:33;;;;;;;4.97;1.40;;;22.20;55.10;;;;;;5104746;28;20028;-58
2020/12/11 13:07:05;;;;;;;3.38;1.00;;;22.20;55.00;;;;;;5108885;28;20088;-62
2020/12/11 13:09:33;;;;;;;3.95;0.98;;;22.20;55.00;;;;;;5109114;28;20034;-60
2020/12/11 13:12:01;;;;;;;3.40;1.42;;;22.20;55.00;;;;;;5110382;28;20020;-51
2020/12/11 13:14:29;;;;;;;3.80;1.27;;;22.20;55.00;;;;;;5106893;28;20027;-63
2020/12/11 13:16:56;;;;;;;2.65;1.00;;;22.20;55.00;;;;;;5107554;28;20051;-63
2020/12/11 13:19:26;;;;;;;2.45;0.93;;;22.20;54.90;;;;;;5109496;28;20140;-60
2020/12/11 13:22:16;;;;;;;1.88;0.95;;;22.20;54.90;;;;;;5108407;28;20842;-60
2020/12/11 13:27:30;;;;;;;2.40;0.93;;;22.20;54.90;;;;;;5108182;28;20085;-64
2020/12/11 13:29:58;;;;;;;3.17;1.15;;;22.10;54.90;;;;;;5109063;28;20371;-58
2020/12/11 13:32:30;;;;;;;5.00;1.27;;;22.10;54.80;;;;;;5109449;28;20119;-60
2020/12/11 13:34:58;;;;;;;3.08;1.17;;;22.10;54.80;;;;;;5104621;28;20028;-64
2020/12/11 13:37:31;;;;;;;2.92;1.00;;;22.10;54.80;;;;;;5109028;28;20051;-61
2020/12/11 13:39:59;;;;;;;4.00;1.40;;;22.10;54.80;;;;;;5109074;28;20070;-63
2020/12/11 13:42:30;;;;;;;3.78;1.05;;;22.10;54.70;;;;;;5108791;28;20019;-61
2020/12/11 13:45:00;;;;;;;3.15;1.30;;;22.10;54.80;;;;;;5105911;28;20035;-63
2020/12/11 13:47:28;;;;;;;2.63;1.13;;;22.10;54.70;;;;;;5110480;28;20049;-62
2020/12/11 13:49:55;;;;;;;2.88;0.85;;;22.10;54.70;;;;;;5111893;28;20016;-58
2020/12/11 13:52:23;;;;;;;1.98;1.00;;;22.10;54.70;;;;;;5113314;28;20020;-54
2020/12/11 13:54:50;;;;;;;2.20;0.80;;;22.10;55.30;;;;;;5109771;28;20465;-52
2020/12/11 13:57:17;;;;;;;4.05;1.20;;;22.10;54.70;;;;;;5111595;28;20119;-61
2020/12/11 13:59:45;;;;;;;2.13;0.73;;;22.10;54.70;;;;;;5115552;27;20028;-61